sensor_id;sensor_type;location;lat;lon;timestamp;pressure;altitude;pressure_sealevel;temperature;humidity
10115;BME280;5097;43.260;27.812;2023-04-03T00:01:40;99491.88;;;9.20;76.58
10115;BME280;5097;43.260;27.812;2023-04-03T00:04:24;99496.53;;;9.15;76.62
10115;BME280;5097;43.260;27.812;2023-04-03T00:07:08;99485.31;;;9.12;76.55
10115;BME280;5097;43.260;27.812;2023-04-03T00:09:53;99486.31;;;9.25;75.94
10115;BME280;5097;43.260;27.812;2023-04-03T00:12:37;99478.00;;;9.17;75.85
10115;BME280;5097;43.260;27.812;2023-04-03T00:15:21;99477.22;;;9.15;75.43
10115;BME280;5097;43.260;27.812;2023-04-03T00:18:05;99480.22;;;9.09;75.81
10115;BME280;5097;43.260;27.812;2023-04-03T00:20:50;99451.03;;;8.81;76.21
10115;BME280;5097;43.260;27.812;2023-04-03T00:23:34;99471.81;;;9.18;75.57
10115;BME280;5097;43.260;27.812;2023-04-03T00:26:19;99474.44;;;9.18;75.37
10115;BME280;5097;43.260;27.812;2023-04-03T00:29:03;99435.28;;;8.96;75.74
10115;BME280;5097;43.260;27.812;2023-04-03T00:31:47;99473.00;;;9.43;73.94
10115;BME280;5097;43.260;27.812;2023-04-03T00:34:31;99469.16;;;9.18;74.16
10115;BME280;5097;43.260;27.812;2023-04-03T00:37:15;99466.81;;;8.97;75.45
10115;BME280;5097;43.260;27.812;2023-04-03T00:39:59;99443.72;;;8.86;75.49
10115;BME280;5097;43.260;27.812;2023-04-03T00:42:47;99465.38;;;8.92;75.75
10115;BME280;5097;43.260;27.812;2023-04-03T00:45:34;99473.47;;;8.88;76.27
10115;BME280;5097;43.260;27.812;2023-04-03T00:48:23;99456.97;;;8.85;76.12
10115;BME280;5097;43.260;27.812;2023-04-03T00:51:11;99467.81;;;9.11;75.40
10115;BME280;5097;43.260;27.812;2023-04-03T00:53:59;99454.75;;;8.93;75.67
10115;BME280;5097;43.260;27.812;2023-04-03T00:56:44;99475.66;;;9.12;75.01
10115;BME280;5097;43.260;27.812;2023-04-03T00:59:33;99472.75;;;9.01;75.60
10115;BME280;5097;43.260;27.812;2023-04-03T01:02:17;99435.91;;;8.85;75.59
10115;BME280;5097;43.260;27.812;2023-04-03T01:05:01;99459.94;;;8.95;75.25
10115;BME280;5097;43.260;27.812;2023-04-03T01:07:46;99445.72;;;8.97;74.79
10115;BME280;5097;43.260;27.812;2023-04-03T01:10:30;99462.91;;;9.04;74.72
10115;BME280;5097;43.260;27.812;2023-04-03T01:13:21;99447.31;;;8.85;75.51
10115;BME280;5097;43.260;27.812;2023-04-03T01:16:07;99443.09;;;8.97;74.98
10115;BME280;5097;43.260;27.812;2023-04-03T01:18:51;99436.72;;;9.01;74.10
10115;BME280;5097;43.260;27.812;2023-04-03T01:21:56;99438.13;;;9.23;73.21
10115;BME280;5097;43.260;27.812;2023-04-03T01:24:46;99435.56;;;8.91;73.96
10115;BME280;5097;43.260;27.812;2023-04-03T01:27:30;99443.41;;;8.77;74.71
10115;BME280;5097;43.260;27.812;2023-04-03T01:30:17;99441.94;;;8.87;74.25
10115;BME280;5097;43.260;27.812;2023-04-03T01:33:02;99435.66;;;8.89;73.71
10115;BME280;5097;43.260;27.812;2023-04-03T01:35:47;99431.31;;;8.88;73.49
10115;BME280;5097;43.260;27.812;2023-04-03T01:38:31;99444.06;;;8.96;73.67
10115;BME280;5097;43.260;27.812;2023-04-03T01:41:15;99435.38;;;8.94;73.36
10115;BME280;5097;43.260;27.812;2023-04-03T01:44:01;99442.69;;;8.89;73.56
10115;BME280;5097;43.260;27.812;2023-04-03T01:46:44;99456.47;;;8.94;73.59
10115;BME280;5097;43.260;27.812;2023-04-03T01:49:30;99454.34;;;8.85;73.38
10115;BME280;5097;43.260;27.812;2023-04-03T01:52:14;99462.44;;;8.82;73.36
10115;BME280;5097;43.260;27.812;2023-04-03T01:54:58;99467.69;;;8.82;73.18
10115;BME280;5097;43.260;27.812;2023-04-03T01:57:42;99460.13;;;8.76;72.99
10115;BME280;5097;43.260;27.812;2023-04-03T02:00:26;99479.94;;;8.83;73.17
10115;BME280;5097;43.260;27.812;2023-04-03T02:03:10;99478.56;;;8.76;73.34
10115;BME280;5097;43.260;27.812;2023-04-03T02:05:55;99483.00;;;8.59;73.35
10115;BME280;5097;43.260;27.812;2023-04-03T02:08:39;99476.13;;;8.72;73.88
10115;BME280;5097;43.260;27.812;2023-04-03T02:11:24;99474.50;;;8.70;73.01
10115;BME280;5097;43.260;27.812;2023-04-03T02:14:08;99477.31;;;8.67;73.23
10115;BME280;5097;43.260;27.812;2023-04-03T02:17:11;99491.66;;;8.61;73.88
10115;BME280;5097;43.260;27.812;2023-04-03T02:19:55;99476.75;;;8.44;74.53
10115;BME280;5097;43.260;27.812;2023-04-03T02:22:41;99490.47;;;8.51;74.38
10115;BME280;5097;43.260;27.812;2023-04-03T02:25:24;99493.25;;;8.48;74.82
10115;BME280;5097;43.260;27.812;2023-04-03T02:28:08;99501.16;;;8.48;74.39
10115;BME280;5097;43.260;27.812;2023-04-03T02:30:52;99500.66;;;8.23;74.67
10115;BME280;5097;43.260;27.812;2023-04-03T02:33:36;99488.72;;;8.34;74.60
10115;BME280;5097;43.260;27.812;2023-04-03T02:36:23;99501.66;;;8.05;75.18
10115;BME280;5097;43.260;27.812;2023-04-03T02:39:13;99499.03;;;8.05;75.76
10115;BME280;5097;43.260;27.812;2023-04-03T02:41:57;99497.97;;;7.92;77.05
10115;BME280;5097;43.260;27.812;2023-04-03T02:44:42;99501.63;;;8.22;76.40
10115;BME280;5097;43.260;27.812;2023-04-03T02:47:27;99495.91;;;8.80;74.56
10115;BME280;5097;43.260;27.812;2023-04-03T02:50:11;99501.44;;;9.52;72.04
10115;BME280;5097;43.260;27.812;2023-04-03T02:52:55;99501.50;;;9.66;70.99
10115;BME280;5097;43.260;27.812;2023-04-03T02:55:40;99463.97;;;9.47;70.25
10115;BME280;5097;43.260;27.812;2023-04-03T02:58:24;99476.69;;;9.54;70.16
10115;BME280;5097;43.260;27.812;2023-04-03T03:01:11;99500.53;;;9.53;70.85
10115;BME280;5097;43.260;27.812;2023-04-03T03:03:55;99495.78;;;9.44;70.84
10115;BME280;5097;43.260;27.812;2023-04-03T03:06:39;99508.38;;;9.38;71.00
10115;BME280;5097;43.260;27.812;2023-04-03T03:09:26;99504.53;;;9.44;71.04
10115;BME280;5097;43.260;27.812;2023-04-03T03:12:11;99496.75;;;9.27;71.20
10115;BME280;5097;43.260;27.812;2023-04-03T03:14:55;99492.44;;;9.26;71.64
10115;BME280;5097;43.260;27.812;2023-04-03T03:17:39;99514.34;;;9.42;71.18
10115;BME280;5097;43.260;27.812;2023-04-03T03:20:23;99520.94;;;9.49;70.85
10115;BME280;5097;43.260;27.812;2023-04-03T03:23:07;99520.94;;;9.49;70.80
10115;BME280;5097;43.260;27.812;2023-04-03T03:25:54;99527.22;;;9.47;70.92
10115;BME280;5097;43.260;27.812;2023-04-03T03:28:40;99531.09;;;9.71;70.06
10115;BME280;5097;43.260;27.812;2023-04-03T03:31:26;99529.09;;;9.75;70.01
10115;BME280;5097;43.260;27.812;2023-04-03T03:34:10;99498.13;;;9.48;69.55
10115;BME280;5097;43.260;27.812;2023-04-03T03:36:54;99499.72;;;9.36;70.00
10115;BME280;5097;43.260;27.812;2023-04-03T03:39:38;99507.78;;;9.33;70.16
10115;BME280;5097;43.260;27.812;2023-04-03T03:42:22;99540.81;;;9.55;69.97
10115;BME280;5097;43.260;27.812;2023-04-03T03:45:09;99553.28;;;9.37;70.52
10115;BME280;5097;43.260;27.812;2023-04-03T03:47:53;99527.28;;;9.15;70.58
10115;BME280;5097;43.260;27.812;2023-04-03T03:50:37;99521.84;;;9.34;69.78
10115;BME280;5097;43.260;27.812;2023-04-03T03:53:22;99562.09;;;9.52;70.13
10115;BME280;5097;43.260;27.812;2023-04-03T03:56:08;99539.03;;;9.25;70.21
10115;BME280;5097;43.260;27.812;2023-04-03T03:58:54;99566.19;;;9.42;70.40
10115;BME280;5097;43.260;27.812;2023-04-03T04:01:40;99568.50;;;9.48;70.12
10115;BME280;5097;43.260;27.812;2023-04-03T04:04:24;99579.03;;;9.48;70.30
10115;BME280;5097;43.260;27.812;2023-04-03T04:07:08;99578.81;;;9.36;70.36
10115;BME280;5097;43.260;27.812;2023-04-03T04:09:52;99561.63;;;9.29;70.64
10115;BME280;5097;43.260;27.812;2023-04-03T04:12:36;99586.25;;;9.44;71.08
10115;BME280;5097;43.260;27.812;2023-04-03T04:15:20;99586.47;;;9.25;71.66
10115;BME280;5097;43.260;27.812;2023-04-03T04:18:07;99566.66;;;9.34;71.14
10115;BME280;5097;43.260;27.812;2023-04-03T04:20:51;99577.31;;;9.47;70.52
10115;BME280;5097;43.260;27.812;2023-04-03T04:23:36;99584.38;;;9.62;70.43
10115;BME280;5097;43.260;27.812;2023-04-03T04:26:20;99582.22;;;9.69;70.20
10115;BME280;5097;43.260;27.812;2023-04-03T04:29:04;99584.88;;;9.69;69.76
10115;BME280;5097;43.260;27.812;2023-04-03T04:31:50;99589.41;;;9.81;69.79
10115;BME280;5097;43.260;27.812;2023-04-03T04:34:37;99579.06;;;9.78;70.09
10115;BME280;5097;43.260;27.812;2023-04-03T04:37:21;99576.94;;;9.99;69.33
10115;BME280;5097;43.260;27.812;2023-04-03T04:40:06;99592.94;;;9.96;69.54
10115;BME280;5097;43.260;27.812;2023-04-03T04:42:50;99589.75;;;9.75;70.41
10115;BME280;5097;43.260;27.812;2023-04-03T04:45:35;99589.31;;;9.83;70.11
10115;BME280;5097;43.260;27.812;2023-04-03T04:48:19;99543.44;;;9.41;70.56
10115;BME280;5097;43.260;27.812;2023-04-03T04:51:05;99571.09;;;9.94;69.99
10115;BME280;5097;43.260;27.812;2023-04-03T04:53:51;99586.00;;;10.10;69.62
10115;BME280;5097;43.260;27.812;2023-04-03T04:56:38;99572.25;;;10.19;69.27
10115;BME280;5097;43.260;27.812;2023-04-03T04:59:22;99541.78;;;10.13;69.05
10115;BME280;5097;43.260;27.812;2023-04-03T05:02:08;99528.78;;;10.10;68.62
10115;BME280;5097;43.260;27.812;2023-04-03T05:04:54;99550.56;;;10.28;68.64
10115;BME280;5097;43.260;27.812;2023-04-03T05:07:43;99570.22;;;10.38;67.99
10115;BME280;5097;43.260;27.812;2023-04-03T05:10:27;99545.66;;;10.22;68.39
10115;BME280;5097;43.260;27.812;2023-04-03T05:13:11;99550.97;;;10.36;67.73
10115;BME280;5097;43.260;27.812;2023-04-03T05:15:56;99549.66;;;10.44;67.40
10115;BME280;5097;43.260;27.812;2023-04-03T05:18:40;99550.97;;;10.36;68.02
10115;BME280;5097;43.260;27.812;2023-04-03T05:21:31;99557.09;;;10.51;67.46
10115;BME280;5097;43.260;27.812;2023-04-03T05:24:21;99557.03;;;10.53;67.85
10115;BME280;5097;43.260;27.812;2023-04-03T05:27:05;99543.41;;;10.45;67.78
10115;BME280;5097;43.260;27.812;2023-04-03T05:29:53;99541.31;;;10.79;67.52
10115;BME280;5097;43.260;27.812;2023-04-03T05:32:38;99557.19;;;11.06;67.07
10115;BME280;5097;43.260;27.812;2023-04-03T05:35:30;99522.59;;;10.96;66.30
10115;BME280;5097;43.260;27.812;2023-04-03T05:38:16;99522.09;;;11.04;66.17
10115;BME280;5097;43.260;27.812;2023-04-03T05:41:02;99540.38;;;11.34;65.09
10115;BME280;5097;43.260;27.812;2023-04-03T05:43:46;99583.41;;;11.51;65.63
10115;BME280;5097;43.260;27.812;2023-04-03T05:46:31;99587.66;;;11.66;65.14
10115;BME280;5097;43.260;27.812;2023-04-03T05:49:18;99590.84;;;11.71;64.40
10115;BME280;5097;43.260;27.812;2023-04-03T05:52:03;99585.69;;;11.70;65.07
10115;BME280;5097;43.260;27.812;2023-04-03T05:54:48;99591.00;;;11.83;64.21
10115;BME280;5097;43.260;27.812;2023-04-03T05:57:39;99602.28;;;11.99;64.27
10115;BME280;5097;43.260;27.812;2023-04-03T06:00:23;99608.75;;;12.47;63.19
10115;BME280;5097;43.260;27.812;2023-04-03T06:03:15;99611.31;;;12.35;63.56
10115;BME280;5097;43.260;27.812;2023-04-03T06:06:02;99609.00;;;12.44;63.39
10115;BME280;5097;43.260;27.812;2023-04-03T06:08:46;99603.25;;;12.76;61.91
10115;BME280;5097;43.260;27.812;2023-04-03T06:11:30;99599.75;;;12.62;61.97
10115;BME280;5097;43.260;27.812;2023-04-03T06:14:15;99629.75;;;12.76;61.78
10115;BME280;5097;43.260;27.812;2023-04-03T06:16:59;99611.47;;;12.97;61.35
10115;BME280;5097;43.260;27.812;2023-04-03T06:19:44;99601.31;;;12.78;62.34
10115;BME280;5097;43.260;27.812;2023-04-03T06:22:28;99625.28;;;12.76;62.19
10115;BME280;5097;43.260;27.812;2023-04-03T06:25:13;99617.63;;;12.97;61.44
10115;BME280;5097;43.260;27.812;2023-04-03T06:27:57;99613.81;;;12.88;61.86
10115;BME280;5097;43.260;27.812;2023-04-03T06:30:42;99615.69;;;12.99;61.44
10115;BME280;5097;43.260;27.812;2023-04-03T06:33:26;99628.41;;;13.07;61.30
10115;BME280;5097;43.260;27.812;2023-04-03T06:36:10;99633.13;;;12.90;61.97
10115;BME280;5097;43.260;27.812;2023-04-03T06:38:55;99612.97;;;12.75;61.99
10115;BME280;5097;43.260;27.812;2023-04-03T06:41:39;99645.66;;;12.76;62.50
10115;BME280;5097;43.260;27.812;2023-04-03T06:44:23;99636.53;;;12.80;62.92
10115;BME280;5097;43.260;27.812;2023-04-03T06:47:09;99649.84;;;12.91;62.24
10115;BME280;5097;43.260;27.812;2023-04-03T06:49:55;99652.84;;;12.86;62.95
10115;BME280;5097;43.260;27.812;2023-04-03T06:52:38;99651.97;;;12.99;62.57
10115;BME280;5097;43.260;27.812;2023-04-03T06:55:22;99674.84;;;13.13;62.40
10115;BME280;5097;43.260;27.812;2023-04-03T06:58:06;99666.09;;;13.73;61.27
10115;BME280;5097;43.260;27.812;2023-04-03T07:00:50;99675.50;;;13.66;61.07
10115;BME280;5097;43.260;27.812;2023-04-03T07:03:35;99675.41;;;14.03;60.14
10115;BME280;5097;43.260;27.812;2023-04-03T07:06:19;99671.34;;;14.11;60.79
10115;BME280;5097;43.260;27.812;2023-04-03T07:09:03;99688.69;;;13.79;60.40
10115;BME280;5097;43.260;27.812;2023-04-03T07:11:47;99675.44;;;14.62;58.94
10115;BME280;5097;43.260;27.812;2023-04-03T07:14:30;99691.59;;;14.58;58.45
10115;BME280;5097;43.260;27.812;2023-04-03T07:17:14;99703.56;;;14.53;58.19
10115;BME280;5097;43.260;27.812;2023-04-03T07:20:00;99697.63;;;15.30;56.78
10115;BME280;5097;43.260;27.812;2023-04-03T07:22:46;99701.16;;;15.63;56.20
10115;BME280;5097;43.260;27.812;2023-04-03T07:25:30;99696.16;;;15.26;55.72
10115;BME280;5097;43.260;27.812;2023-04-03T07:28:17;99696.16;;;15.26;56.34
10115;BME280;5097;43.260;27.812;2023-04-03T07:31:03;99696.16;;;15.26;56.45
10115;BME280;5097;43.260;27.812;2023-04-03T07:33:48;99683.72;;;15.15;56.91
10115;BME280;5097;43.260;27.812;2023-04-03T07:36:33;99694.47;;;15.25;56.24
10115;BME280;5097;43.260;27.812;2023-04-03T07:39:18;99694.50;;;15.14;56.50
10115;BME280;5097;43.260;27.812;2023-04-03T07:42:02;99700.44;;;15.84;55.53
10115;BME280;5097;43.260;27.812;2023-04-03T07:44:46;99706.53;;;15.52;55.48
10115;BME280;5097;43.260;27.812;2023-04-03T07:47:30;99709.16;;;15.63;54.93
10115;BME280;5097;43.260;27.812;2023-04-03T07:50:15;99714.72;;;15.94;53.48
10115;BME280;5097;43.260;27.812;2023-04-03T07:53:00;99706.94;;;15.91;53.97
10115;BME280;5097;43.260;27.812;2023-04-03T07:55:45;99721.81;;;16.05;53.87
10115;BME280;5097;43.260;27.812;2023-04-03T07:58:30;99735.25;;;16.57;52.90
10115;BME280;5097;43.260;27.812;2023-04-03T08:01:13;99741.34;;;15.83;54.17
10115;BME280;5097;43.260;27.812;2023-04-03T08:03:57;99741.38;;;16.48;52.50
10115;BME280;5097;43.260;27.812;2023-04-03T08:06:41;99734.00;;;17.03;50.55
10115;BME280;5097;43.260;27.812;2023-04-03T08:09:29;99722.53;;;17.13;50.96
10115;BME280;5097;43.260;27.812;2023-04-03T08:12:13;99721.31;;;17.26;50.33
10115;BME280;5097;43.260;27.812;2023-04-03T08:14:59;99694.22;;;17.91;49.48
10115;BME280;5097;43.260;27.812;2023-04-03T08:17:44;99717.88;;;18.35;47.42
10115;BME280;5097;43.260;27.812;2023-04-03T08:20:28;99718.94;;;17.33;49.48
10115;BME280;5097;43.260;27.812;2023-04-03T08:23:12;99726.72;;;17.36;49.99
10115;BME280;5097;43.260;27.812;2023-04-03T08:26:06;99722.63;;;17.32;49.95
10115;BME280;5097;43.260;27.812;2023-04-03T08:28:50;99721.97;;;18.20;48.28
10115;BME280;5097;43.260;27.812;2023-04-03T08:31:34;99714.44;;;18.72;46.29
10115;BME280;5097;43.260;27.812;2023-04-03T08:34:19;99721.63;;;19.29;45.35
10115;BME280;5097;43.260;27.812;2023-04-03T08:37:03;99720.31;;;19.33;46.00
10115;BME280;5097;43.260;27.812;2023-04-03T08:39:48;99707.22;;;19.30;45.74
10115;BME280;5097;43.260;27.812;2023-04-03T08:42:41;99713.84;;;18.88;46.62
10115;BME280;5097;43.260;27.812;2023-04-03T08:45:40;99714.97;;;18.86;47.08
10115;BME280;5097;43.260;27.812;2023-04-03T08:48:29;99707.03;;;19.41;45.96
10115;BME280;5097;43.260;27.812;2023-04-03T08:51:16;99716.22;;;19.39;46.34
10115;BME280;5097;43.260;27.812;2023-04-03T08:54:04;99708.81;;;18.75;46.80
10115;BME280;5097;43.260;27.812;2023-04-03T08:56:52;99713.44;;;19.31;46.40
10115;BME280;5097;43.260;27.812;2023-04-03T08:59:38;99704.25;;;19.61;45.27
10115;BME280;5097;43.260;27.812;2023-04-03T09:02:31;99708.44;;;19.64;45.01
10115;BME280;5097;43.260;27.812;2023-04-03T09:05:18;99707.81;;;19.24;46.04
10115;BME280;5097;43.260;27.812;2023-04-03T09:08:10;99701.28;;;19.36;46.16
10115;BME280;5097;43.260;27.812;2023-04-03T09:11:06;99672.47;;;19.20;45.25
10115;BME280;5097;43.260;27.812;2023-04-03T09:13:57;99693.94;;;19.38;45.91
10115;BME280;5097;43.260;27.812;2023-04-03T09:16:49;99692.31;;;19.28;46.60
10115;BME280;5097;43.260;27.812;2023-04-03T09:19:41;99698.19;;;19.59;45.43
10115;BME280;5097;43.260;27.812;2023-04-03T09:22:31;99698.50;;;19.74;45.62
10115;BME280;5097;43.260;27.812;2023-04-03T09:25:27;99698.69;;;19.45;45.31
10115;BME280;5097;43.260;27.812;2023-04-03T09:28:14;99699.91;;;19.50;45.90
10115;BME280;5097;43.260;27.812;2023-04-03T09:30:59;99698.19;;;19.31;46.37
10115;BME280;5097;43.260;27.812;2023-04-03T09:33:45;99690.13;;;19.13;47.05
10115;BME280;5097;43.260;27.812;2023-04-03T09:36:40;99689.44;;;19.85;45.58
10115;BME280;5097;43.260;27.812;2023-04-03T09:39:25;99690.38;;;19.48;46.61
10115;BME280;5097;43.260;27.812;2023-04-03T09:42:16;99680.31;;;19.77;45.75
10115;BME280;5097;43.260;27.812;2023-04-03T09:45:04;99683.56;;;19.71;45.92
10115;BME280;5097;43.260;27.812;2023-04-03T09:47:49;99688.84;;;19.63;45.97
10115;BME280;5097;43.260;27.812;2023-04-03T09:50:59;99682.28;;;19.57;46.35
10115;BME280;5097;43.260;27.812;2023-04-03T09:53:44;99693.25;;;19.82;45.95
10115;BME280;5097;43.260;27.812;2023-04-03T09:56:29;99697.59;;;19.65;46.99
10115;BME280;5097;43.260;27.812;2023-04-03T09:59:14;99659.88;;;19.31;48.07
10115;BME280;5097;43.260;27.812;2023-04-03T10:02:02;99679.66;;;19.48;48.75
10115;BME280;5097;43.260;27.812;2023-04-03T10:04:47;99699.75;;;18.86;50.33
10115;BME280;5097;43.260;27.812;2023-04-03T10:07:49;99699.38;;;19.19;50.49
10115;BME280;5097;43.260;27.812;2023-04-03T10:10:46;99708.44;;;19.08;50.47
10115;BME280;5097;43.260;27.812;2023-04-03T10:13:32;99703.84;;;19.28;50.43
10115;BME280;5097;43.260;27.812;2023-04-03T10:16:36;99709.31;;;18.99;50.65
10115;BME280;5097;43.260;27.812;2023-04-03T10:19:32;99686.25;;;19.53;48.84
10115;BME280;5097;43.260;27.812;2023-04-03T10:22:28;99708.09;;;18.93;50.29
10115;BME280;5097;43.260;27.812;2023-04-03T10:25:21;99679.28;;;18.48;51.31
10115;BME280;5097;43.260;27.812;2023-04-03T10:28:11;99711.28;;;18.97;51.21
10115;BME280;5097;43.260;27.812;2023-04-03T10:31:04;99699.06;;;19.22;51.43
10115;BME280;5097;43.260;27.812;2023-04-03T10:33:59;99659.13;;;19.38;48.81
10115;BME280;5097;43.260;27.812;2023-04-03T10:36:55;99696.50;;;19.30;49.17
10115;BME280;5097;43.260;27.812;2023-04-03T10:39:47;99693.81;;;19.58;49.14
10115;BME280;5097;43.260;27.812;2023-04-03T10:42:41;99684.78;;;19.59;49.41
10115;BME280;5097;43.260;27.812;2023-04-03T10:45:39;99655.22;;;19.97;47.66
10115;BME280;5097;43.260;27.812;2023-04-03T10:48:40;99657.59;;;19.82;47.72
10115;BME280;5097;43.260;27.812;2023-04-03T10:51:29;99679.03;;;20.18;46.96
10115;BME280;5097;43.260;27.812;2023-04-03T10:54:20;99645.91;;;19.73;47.44
10115;BME280;5097;43.260;27.812;2023-04-03T10:57:09;99668.53;;;19.88;47.85
10115;BME280;5097;43.260;27.812;2023-04-03T10:59:59;99669.34;;;20.25;47.12
10115;BME280;5097;43.260;27.812;2023-04-03T11:02:50;99642.06;;;19.75;48.15
10115;BME280;5097;43.260;27.812;2023-04-03T11:05:39;99650.75;;;20.50;46.33
10115;BME280;5097;43.260;27.812;2023-04-03T11:08:28;99670.03;;;20.27;46.85
10115;BME280;5097;43.260;27.812;2023-04-03T11:11:17;99665.19;;;20.49;45.97
10115;BME280;5097;43.260;27.812;2023-04-03T11:14:09;99657.44;;;20.01;46.63
10115;BME280;5097;43.260;27.812;2023-04-03T11:17:14;99668.53;;;18.77;49.30
10115;BME280;5097;43.260;27.812;2023-04-03T11:20:05;99634.56;;;18.77;48.79
10115;BME280;5097;43.260;27.812;2023-04-03T11:22:54;99647.31;;;19.03;50.00
10115;BME280;5097;43.260;27.812;2023-04-03T11:25:42;99670.41;;;19.60;48.77
10115;BME280;5097;43.260;27.812;2023-04-03T11:28:27;99660.66;;;19.41;48.79
10115;BME280;5097;43.260;27.812;2023-04-03T11:31:39;99659.44;;;18.98;48.37
10115;BME280;5097;43.260;27.812;2023-04-03T11:34:33;99662.88;;;19.18;48.57
10115;BME280;5097;43.260;27.812;2023-04-03T11:37:26;99676.50;;;18.20;50.94
10115;BME280;5097;43.260;27.812;2023-04-03T11:40:21;99675.41;;;17.33;51.69
10115;BME280;5097;43.260;27.812;2023-04-03T11:43:20;99638.66;;;18.15;49.95
10115;BME280;5097;43.260;27.812;2023-04-03T11:46:05;99644.94;;;18.53;49.46
10115;BME280;5097;43.260;27.812;2023-04-03T11:48:50;99666.47;;;18.61;49.62
10115;BME280;5097;43.260;27.812;2023-04-03T11:51:45;99674.03;;;18.75;48.90
10115;BME280;5097;43.260;27.812;2023-04-03T11:54:48;99672.72;;;18.89;48.41
10115;BME280;5097;43.260;27.812;2023-04-03T11:57:46;99673.97;;;17.99;49.65
10115;BME280;5097;43.260;27.812;2023-04-03T12:00:53;99674.13;;;18.84;48.36
10115;BME280;5097;43.260;27.812;2023-04-03T12:03:56;99676.47;;;18.49;49.17
10115;BME280;5097;43.260;27.812;2023-04-03T12:06:58;99677.38;;;18.77;48.35
10115;BME280;5097;43.260;27.812;2023-04-03T12:09:58;99668.59;;;18.48;48.96
10115;BME280;5097;43.260;27.812;2023-04-03T12:12:57;99674.06;;;18.56;49.16
10115;BME280;5097;43.260;27.812;2023-04-03T12:15:52;99660.53;;;18.67;48.95
10115;BME280;5097;43.260;27.812;2023-04-03T12:18:56;99659.38;;;19.17;47.84
10115;BME280;5097;43.260;27.812;2023-04-03T12:22:21;99666.38;;;17.84;50.42
10115;BME280;5097;43.260;27.812;2023-04-03T12:28:39;99657.06;;;17.69;51.38
10115;BME280;5097;43.260;27.812;2023-04-03T12:31:40;99652.19;;;18.03;51.55
10115;BME280;5097;43.260;27.812;2023-04-03T12:34:45;99643.19;;;18.04;50.10
10115;BME280;5097;43.260;27.812;2023-04-03T12:37:54;99644.16;;;18.13;49.97
10115;BME280;5097;43.260;27.812;2023-04-03T12:40:48;99639.06;;;17.81;51.11
10115;BME280;5097;43.260;27.812;2023-04-03T12:43:50;99638.47;;;18.46;50.22
10115;BME280;5097;43.260;27.812;2023-04-03T12:46:50;99618.81;;;18.17;50.63
10115;BME280;5097;43.260;27.812;2023-04-03T12:49:45;99629.22;;;17.81;50.80
10115;BME280;5097;43.260;27.812;2023-04-03T12:52:39;99623.25;;;16.88;53.31
10115;BME280;5097;43.260;27.812;2023-04-03T12:55:37;99583.91;;;17.11;52.54
10115;BME280;5097;43.260;27.812;2023-04-03T12:58:28;99621.34;;;17.60;51.34
10115;BME280;5097;43.260;27.812;2023-04-03T13:01:25;99632.75;;;17.12;53.01
10115;BME280;5097;43.260;27.812;2023-04-03T13:04:15;99621.41;;;16.79;53.18
10115;BME280;5097;43.260;27.812;2023-04-03T13:07:19;99616.59;;;16.72;53.68
10115;BME280;5097;43.260;27.812;2023-04-03T13:10:15;99632.31;;;17.06;53.40
10115;BME280;5097;43.260;27.812;2023-04-03T13:13:09;99626.16;;;17.86;51.76
10115;BME280;5097;43.260;27.812;2023-04-03T13:15:59;99637.63;;;17.37;51.71
10115;BME280;5097;43.260;27.812;2023-04-03T13:18:57;99638.59;;;16.65;53.83
10115;BME280;5097;43.260;27.812;2023-04-03T13:21:49;99630.50;;;16.97;53.59
10115;BME280;5097;43.260;27.812;2023-04-03T13:24:42;99611.19;;;16.32;54.52
10115;BME280;5097;43.260;27.812;2023-04-03T13:27:32;99630.72;;;16.63;54.15
10115;BME280;5097;43.260;27.812;2023-04-03T13:30:26;99627.56;;;15.85;55.52
10115;BME280;5097;43.260;27.812;2023-04-03T13:33:21;99635.91;;;16.65;54.44
10115;BME280;5097;43.260;27.812;2023-04-03T13:36:08;99636.94;;;16.42;54.57
10115;BME280;5097;43.260;27.812;2023-04-03T13:39:02;99637.25;;;16.07;55.77
10115;BME280;5097;43.260;27.812;2023-04-03T13:41:48;99634.97;;;16.02;56.22
10115;BME280;5097;43.260;27.812;2023-04-03T13:44:34;99637.22;;;16.70;54.91
10115;BME280;5097;43.260;27.812;2023-04-03T13:47:22;99644.38;;;16.91;54.59
10115;BME280;5097;43.260;27.812;2023-04-03T13:50:15;99632.84;;;16.17;56.23
10115;BME280;5097;43.260;27.812;2023-04-03T13:53:03;99639.28;;;16.36;54.38
10115;BME280;5097;43.260;27.812;2023-04-03T13:55:59;99627.38;;;15.98;55.43
10115;BME280;5097;43.260;27.812;2023-04-03T13:58:55;99652.59;;;16.15;56.17
10115;BME280;5097;43.260;27.812;2023-04-03T14:01:45;99659.56;;;16.27;55.48
10115;BME280;5097;43.260;27.812;2023-04-03T14:04:44;99655.63;;;15.89;55.61
10115;BME280;5097;43.260;27.812;2023-04-03T14:07:30;99629.94;;;15.44;56.91
10115;BME280;5097;43.260;27.812;2023-04-03T14:10:15;99630.41;;;15.61;56.33
10115;BME280;5097;43.260;27.812;2023-04-03T14:13:02;99680.56;;;15.21;58.22
10115;BME280;5097;43.260;27.812;2023-04-03T14:15:48;99657.66;;;15.41;57.34
10115;BME280;5097;43.260;27.812;2023-04-03T14:18:34;99665.38;;;15.56;56.93
10115;BME280;5097;43.260;27.812;2023-04-03T14:21:21;99669.72;;;14.32;60.07
10115;BME280;5097;43.260;27.812;2023-04-03T14:24:06;99661.09;;;14.17;60.93
10115;BME280;5097;43.260;27.812;2023-04-03T14:26:52;99687.44;;;14.32;61.04
10115;BME280;5097;43.260;27.812;2023-04-03T14:29:36;99685.56;;;14.10;61.71
10115;BME280;5097;43.260;27.812;2023-04-03T14:32:21;99692.09;;;14.17;61.48
10115;BME280;5097;43.260;27.812;2023-04-03T14:35:06;99690.66;;;14.48;60.69
10115;BME280;5097;43.260;27.812;2023-04-03T14:37:53;99701.44;;;13.98;61.26
10115;BME280;5097;43.260;27.812;2023-04-03T14:40:38;99691.03;;;13.84;61.79
10115;BME280;5097;43.260;27.812;2023-04-03T14:43:23;99701.09;;;14.38;60.24
10115;BME280;5097;43.260;27.812;2023-04-03T14:46:12;99702.72;;;14.17;61.08
10115;BME280;5097;43.260;27.812;2023-04-03T14:48:57;99704.22;;;13.97;60.85
10115;BME280;5097;43.260;27.812;2023-04-03T14:51:41;99683.09;;;13.95;62.13
10115;BME280;5097;43.260;27.812;2023-04-03T14:54:27;99704.47;;;13.94;61.79
10115;BME280;5097;43.260;27.812;2023-04-03T14:57:13;99693.94;;;13.92;63.92
10115;BME280;5097;43.260;27.812;2023-04-03T14:59:58;99695.66;;;14.29;63.31